TimeEDT,TemperatureF,Dew PointF,Humidity,Sea Level PressureIn,VisibilityMPH,Wind Direction,Wind SpeedMPH,Gust SpeedMPH,PrecipitationIn,Events,Conditions,WindDirDegrees,DateUTC
12:56 AM,69.1,66.0,90,29.78,6.0,ESE,4.6,-,N/A,,Overcast,120,2013-06-13 04:56:00
1:56 AM,69.1,64.9,87,29.77,6.0,SE,4.6,-,N/A,,Overcast,130,2013-06-13 05:56:00
2:56 AM,69.1,64.0,84,29.75,7.0,Calm,Calm,-,N/A,,Overcast,0,2013-06-13 06:56:00
3:56 AM,70.0,64.0,81,29.72,6.0,East,3.5,-,N/A,,Haze,80,2013-06-13 07:56:00
4:19 AM,69.8,64.4,83,29.72,6.0,East,4.6,-,0.00,Rain-Thunderstorm,Light Thunderstorms and Rain,80,2013-06-13 08:19:00
4:56 AM,69.1,64.0,84,29.71,7.0,NE,3.5,-,0.01,Thunderstorm,Thunderstorm,40,2013-06-13 08:56:00
5:07 AM,68.0,64.4,88,29.71,6.0,Calm,Calm,-,N/A,,Overcast,0,2013-06-13 09:07:00
5:56 AM,66.9,63.0,87,29.67,6.0,ESE,9.2,-,N/A,,Overcast,120,2013-06-13 09:56:00
6:56 AM,68.0,63.0,84,29.65,5.0,ESE,10.4,-,N/A,,Haze,120,2013-06-13 10:56:00
7:04 AM,68.0,62.6,83,29.65,5.0,ESE,11.5,-,N/A,,Haze,110,2013-06-13 11:04:00
7:37 AM,66.2,62.6,88,29.63,7.0,SE,11.5,20.7,0.00,Rain-Thunderstorm,Light Thunderstorms and Rain,130,2013-06-13 11:37:00
7:45 AM,66.2,62.6,88,29.69,0.8,Calm,Calm,-,0.02,Rain-Thunderstorm,Heavy Thunderstorms and Rain,0,2013-06-13 11:45:00
7:52 AM,66.2,62.6,88,29.66,0.2,East,8.1,-,0.26,Fog-Rain-Thunderstorm,Heavy Thunderstorms and Rain,100,2013-06-13 11:52:00
7:56 AM,66.0,64.0,93,29.66,0.2,Variable,3.5,-,0.43,Fog-Rain-Thunderstorm,Heavy Thunderstorms and Rain,0,2013-06-13 11:56:00
8:06 AM,66.2,64.4,94,29.67,1.0,North,15.0,-,0.17,Rain-Thunderstorm,Thunderstorms and Rain,350,2013-06-13 12:06:00
8:18 AM,64.4,62.6,94,29.64,3.0,ENE,8.1,-,0.19,Rain-Thunderstorm,Thunderstorms and Rain,70,2013-06-13 12:18:00
8:29 AM,64.4,62.6,94,29.63,3.0,East,8.1,-,0.21,Rain,Light Rain,80,2013-06-13 12:29:00
8:56 AM,64.9,62.1,90,29.62,3.0,SE,6.9,-,0.22,Rain,Light Rain,140,2013-06-13 12:56:00
9:14 AM,64.4,62.6,94,29.60,3.0,SSE,10.4,-,0.01,Rain,Light Rain,150,2013-06-13 13:14:00
9:54 AM,69.8,64.4,83,29.59,3.0,SSE,8.1,-,0.01,,Overcast,160,2013-06-13 13:54:00
9:56 AM,69.1,64.9,87,29.59,3.0,South,8.1,-,0.01,,Overcast,170,2013-06-13 13:56:00
10:56 AM,73.0,66.0,79,29.54,3.0,Calm,Calm,-,N/A,,Mostly Cloudy,0,2013-06-13 14:56:00
11:56 AM,75.9,66.0,71,29.52,10.0,Calm,Calm,-,N/A,,Mostly Cloudy,0,2013-06-13 15:56:00
12:56 PM,80.1,64.0,58,29.48,10.0,West,17.3,21.9,N/A,,Mostly Cloudy,270,2013-06-13 16:56:00
1:56 PM,82.0,63.0,52,29.45,10.0,West,16.1,27.6,N/A,,Scattered Clouds,270,2013-06-13 17:56:00
2:56 PM,82.0,63.0,52,29.45,10.0,West,16.1,26.5,N/A,,Mostly Cloudy,280,2013-06-13 18:56:00
3:56 PM,80.1,62.1,54,29.44,10.0,West,16.1,27.6,N/A,,Mostly Cloudy,280,2013-06-13 19:56:00
4:56 PM,79.0,63.0,58,29.43,10.0,West,15.0,21.9,N/A,,Mostly Cloudy,280,2013-06-13 20:56:00
5:56 PM,75.9,62.1,62,29.44,10.0,NW,17.3,25.3,N/A,,Overcast,310,2013-06-13 21:56:00
6:56 PM,72.0,60.1,66,29.46,10.0,NW,16.1,26.5,0.00,,Overcast,320,2013-06-13 22:56:00
7:56 PM,69.1,60.1,73,29.49,10.0,WNW,16.1,-,0.00,Rain,Light Rain,300,2013-06-13 23:56:00
8:56 PM,68.0,61.0,78,29.51,10.0,WNW,17.3,23.0,0.00,Rain,Light Rain,300,2013-06-14 00:56:00
9:56 PM,68.0,57.0,68,29.53,10.0,NW,18.4,24.2,0.00,,Overcast,320,2013-06-14 01:56:00
10:56 PM,66.0,55.9,70,29.57,10.0,North,21.9,31.1,N/A,,Overcast,350,2013-06-14 02:56:00
11:22 PM,64.4,53.6,68,29.58,10.0,North,18.4,28.8,N/A,,Overcast,350,2013-06-14 03:22:00
11:56 PM,64.0,54.0,70,29.60,10.0,North,12.7,25.3,N/A,,Overcast,350,2013-06-14 03:56:00